AirNav   Pilot Hours Calculator
 
 1318 users online  

03NH Lorden Heliport
Milford, New Hampshire, USA

GOING TO MILFORD?


FAA INFORMATION EFFECTIVE 30 JANUARY 2020

Location

FAA Identifier: 03NH
Lat/Long: 42-48-55.6100N 071-07-27.8200W
42-48.926833N 071-07.463667W
42.8154472,-71.1243944
(estimated)
Elevation: 400 ft. / 122 m (estimated)
Variation: 16W (2000)
From city: 1 mile NW of MILFORD, NH
Time zone: UTC -5 (UTC -4 during Daylight Saving Time)
Zip code: 01832

Heliport Operations

Heliport use: Private use. Permission required prior to landing
Activation date: 11/2000
Control tower: no
ARTCC: BOSTON CENTER
FSS: BANGOR FLIGHT SERVICE STATION
Attendance: UNATNDD
Segmented circle: no

Heliport Communications

WX ASOS at LWM (6 nm S): PHONE 978-687-8017
WX ASOS at MHT (15 nm NW): 119.55 (603-621-1766)
WX ASOS at BVY (17 nm SE): PHONE 978-921-5042
WX AWOS-3PT at ASH (17 nm W): 125.1 (603-578-0473)

Nearby radio navigation aids

VOR radial/distance  VOR name  Freq  Var
LWMr359/4.7LAWRENCE VOR/DME112.5015W
MHTr121/11.2MANCHESTER VOR/DME114.4015W
PSMr235/20.6PEASE VOR/DME116.5016W
BOSr004/28.1BOSTON VOR/DME112.7016W
CONr156/31.3CONCORD VOR/DME112.9015W

 
NDB name  Hdg/Dist  Freq  Var  ID
ROLLINS224/27.526016WESG . ... --.

Heliport Services

Runway Information

Helipad H1

Dimensions: 12 x 80 ft. / 4 x 24 m
Surface: asphalt
Traffic pattern: leftleft

Heliport Ownership and Management from official FAA records

Ownership: Privately-owned
Owner: KENNETH LORDEN
34 STABLE ROAD
MILDFORD, NH 03055
Phone (603) 759-4675
Manager: KENNETH LORDEN
34 STABLE ROAD
MILDFORD, NH 03055
Phone (603) 759-4675

Additional Remarks

FOR CD CTC BOSTON APCH AT 603-594-5554.

Instrument Procedures

There are no published instrument procedures at 03NH.

Some nearby airports with instrument procedures:

KLWM - Lawrence Municipal Airport (6 nm S)
KMHT - Manchester Airport (15 nm NW)
KBVY - Beverly Regional Airport (17 nm SE)
KASH - Boire Field Airport (17 nm W)
KPSM - Portsmouth International Airport at Pease (21 nm NE)
 
Loc | Ops | Rwys | IFR | FBO | Links
Com | Nav | Svcs | Stats | Notes
Area around 03NH (Lorden Heliport)
 
Road maps at: MapQuest Bing Google
 
Aerial photo
No photo
 
Sectional chart

 
Airport distance calculator
Flying to Lorden Heliport? Find the distance to fly.

From to 03NH

Sunrise and sunset
Times for 17-Feb-2020
 Local
(UTC-5)
 Zulu
(UTC)
Morning civil twilight06:1111:11
Sunrise06:4011:40
Sunset17:1722:17
Evening civil twilight17:4622:46

Current date and time
Zulu (UTC)  17-Feb-2020 17:23:48
Local (UTC-5)  17-Feb-2020 12:23:48
 
METAR
KLWM 
6nm S 
171654Z 31011KT 10SM CLR 04/M07 A3022 RMK AO2 SLP234 T00391072
KMHT 
15nm NW 
171653Z 32012G17KT 10SM FEW050 04/M11 A3019 RMK AO2 SLP242 T00441111
KBVY 
17nm SE 
171653Z 28014G18KT 10SM CLR 06/M07 A3019 RMK AO2 SLP222 T00561067
KASH 
18nm W 
171656Z 31011G15KT 10SM SCT055 05/M09 A3021 RMK AO2 SLP237 T00501089
TAF
KMHT 
15nm NW 
171132Z 1712/1812 VRB03KT P6SM FEW150 FM171400 30005KT P6SM SKC FM171800 31008G15KT P6SM FEW040 FM172300 VRB03KT P6SM FEW150
NOTAMs
Click for the latest NOTAMs
NOTAMs are issued by the DoD/FAA and will open in a separate window not controlled by AirNav.

 

 
 

Would you like to see your business listed on this page?

 If your business provides an interesting product or service to pilots, flight crews, aircraft, or users of the Lorden Heliport, you should consider listing it here.  To start the listing process, click on the button below
 
Add a business
 

Other Pages about Lorden Heliport

Update a link
 
Copyright © AirNav, LLC. All rights reserved. Privacy Policy  Contact